createdAt,value
2022-09-05T00:02:24.395Z,50.47
2022-09-05T00:05:05.889Z,50.18
2022-09-05T00:07:59.325Z,50.23
2022-09-05T00:10:46.616Z,50.18
2022-09-05T00:13:33.283Z,51.21
2022-09-05T00:16:19.565Z,51.30
2022-09-05T00:24:20.851Z,51.19
2022-09-05T00:24:34.560Z,51.06
2022-09-05T00:27:58.660Z,51.35
2022-09-05T00:31:51.612Z,52.06
2022-09-05T00:33:37.750Z,52.01
2022-09-05T00:36:25.972Z,51.87
2022-09-05T00:39:01.303Z,52.26
2022-09-05T00:41:34.268Z,51.97
2022-09-05T00:44:05.619Z,51.56
2022-09-05T00:46:38.590Z,51.51
2022-09-05T00:49:18.916Z,51.51
2022-09-05T00:51:56.069Z,51.58
2022-09-05T00:54:46.171Z,51.39
2022-09-05T00:57:43.600Z,51.64
2022-09-05T01:00:17.904Z,51.43
2022-09-05T01:03:09.944Z,52.10
2022-09-05T01:06:13.860Z,51.90
2022-09-05T01:09:07.576Z,51.65
2022-09-05T01:12:02.348Z,51.72
2022-09-05T01:14:48.527Z,51.44
2022-09-05T01:17:31.458Z,51.75
2022-09-05T01:20:19.534Z,52.38
2022-09-05T01:23:08.518Z,52.46
2022-09-05T01:25:55.536Z,52.13
2022-09-05T01:29:15.048Z,51.39
2022-09-05T01:31:29.288Z,51.35
2022-09-05T01:34:14.245Z,51.93
2022-09-05T01:36:58.331Z,51.47
2022-09-05T01:40:15.301Z,51.35
2022-09-05T01:42:38.303Z,50.98
2022-09-05T01:45:17.417Z,51.14
2022-09-05T01:47:54.728Z,51.38
2022-09-05T01:50:40.655Z,51.42
2022-09-05T01:53:28.051Z,51.62
2022-09-05T01:56:14.971Z,51.53
2022-09-05T01:58:51.063Z,52.06
2022-09-05T02:01:32.929Z,51.60
2022-09-05T02:04:24.267Z,51.46
2022-09-05T02:07:19.279Z,51.78
2022-09-05T02:10:23.348Z,52.50
2022-09-05T02:13:02.919Z,52.56
2022-09-05T02:15:57.752Z,52.55
2022-09-05T02:18:48.085Z,52.72
2022-09-05T02:21:27.349Z,53.89
2022-09-05T02:24:06.431Z,54.22
2022-09-05T02:26:41.163Z,54.27
2022-09-05T02:29:29.020Z,54.31
2022-09-05T02:32:04.748Z,54.49
2022-09-05T02:34:46.159Z,55.29
2022-09-05T02:38:15.591Z,55.23
2022-09-05T02:45:04.076Z,55.73
2022-09-05T02:45:09.523Z,56.89
2022-09-05T02:46:19.369Z,58.25
2022-09-05T02:48:55.848Z,59.20
2022-09-05T02:57:41.149Z,61.59
2022-09-05T02:57:46.440Z,61.01
2022-09-05T02:58:05.242Z,63.10
2022-09-05T03:00:23.127Z,63.66
2022-09-05T03:03:22.024Z,64.46
2022-09-05T03:05:58.114Z,65.63
2022-09-05T03:08:55.436Z,66.07
2022-09-05T03:11:58.630Z,67.62
2022-09-05T03:15:20.797Z,68.68
2022-09-05T03:18:28.090Z,68.99
2022-09-05T03:21:39.703Z,70.46
2022-09-05T03:24:56.243Z,71.33
2022-09-05T03:28:06.810Z,71.26
2022-09-05T03:30:52.227Z,72.57
2022-09-05T03:33:43.401Z,72.43
2022-09-05T03:36:54.414Z,73.37
2022-09-05T03:39:56.775Z,73.56
2022-09-05T03:43:14.437Z,75.43
2022-09-05T03:46:01.508Z,75.77
2022-09-05T03:49:10.510Z,74.36
2022-09-05T03:57:15.960Z,72.87
2022-09-05T03:57:27.458Z,72.62
2022-09-05T03:58:56.232Z,75.75
2022-09-05T04:02:46.455Z,73.59
2022-09-05T04:08:20.388Z,73.32
2022-09-05T04:08:23.726Z,75.05
2022-09-05T04:10:27.769Z,75.33
2022-09-05T04:13:02.758Z,75.51
2022-09-05T04:15:42.075Z,74.23
2022-09-05T04:18:33.443Z,74.11
2022-09-05T04:21:08.362Z,75.45
2022-09-05T04:23:49.420Z,79.00
2022-09-05T04:26:36.239Z,81.14
2022-09-05T04:29:16.686Z,80.40
2022-09-05T04:32:03.920Z,78.30
2022-09-05T04:34:56.006Z,79.28
2022-09-05T04:37:49.473Z,78.52
2022-09-05T04:40:39.474Z,78.67
2022-09-05T04:43:14.403Z,75.60
2022-09-05T04:45:46.871Z,75.97
2022-09-05T04:48:22.251Z,79.02
2022-09-05T04:51:11.691Z,78.94
2022-09-05T04:54:05.094Z,81.77
2022-09-05T04:56:38.511Z,79.90
2022-09-05T05:01:39.364Z,79.33
2022-09-05T05:06:05.153Z,80.95
2022-09-05T05:06:16.466Z,78.99
2022-09-05T05:07:59.367Z,83.59
2022-09-05T05:14:02.616Z,82.75
2022-09-05T05:17:57.032Z,86.09
2022-09-05T05:18:09.596Z,84.51
2022-09-05T05:19:21.688Z,85.03
2022-09-05T05:21:55.227Z,86.01
2022-09-05T05:24:29.115Z,85.72
2022-09-05T05:27:07.522Z,90.84
2022-09-05T05:29:45.561Z,92.04
2022-09-05T05:32:24.908Z,89.54
2022-09-05T05:35:15.689Z,96.92
2022-09-05T05:37:49.630Z,98.27
2022-09-05T05:40:25.639Z,98.13
2022-09-05T05:42:55.168Z,100.00
2022-09-05T05:45:29.147Z,100.00
2022-09-05T05:48:05.099Z,100.00
2022-09-05T05:50:49.152Z,100.00
2022-09-05T05:53:43.043Z,100.00
2022-09-05T05:56:36.206Z,100.00
2022-09-05T05:59:30.742Z,100.00
2022-09-05T06:02:30.681Z,100.00
2022-09-05T06:05:35.371Z,100.00
2022-09-05T06:09:52.699Z,100.00
2022-09-05T06:14:56.248Z,100.00
2022-09-05T06:15:12.124Z,99.65
2022-09-05T06:18:29.328Z,96.08
2022-09-05T06:22:10.090Z,95.60
2022-09-05T06:25:16.243Z,83.90
2022-09-05T06:28:18.395Z,86.69
2022-09-05T06:31:29.839Z,90.24
2022-09-05T06:34:05.171Z,100.00
2022-09-05T06:36:49.881Z,100.00
2022-09-05T06:39:32.223Z,100.00
2022-09-05T06:42:28.540Z,100.00
2022-09-05T06:45:28.784Z,100.00
2022-09-05T06:48:06.110Z,100.00
2022-09-05T06:51:07.938Z,100.00
2022-09-05T06:53:59.329Z,100.00
2022-09-05T06:56:47.243Z,100.00
2022-09-05T07:00:02.573Z,100.00
2022-09-05T07:02:58.858Z,100.00
2022-09-05T07:05:40.082Z,100.00
2022-09-05T07:08:36.419Z,100.00
2022-09-05T07:11:16.616Z,100.00
2022-09-05T07:14:01.506Z,100.00
2022-09-05T07:16:41.045Z,100.00
2022-09-05T07:19:27.201Z,100.00
2022-09-05T07:22:33.450Z,100.00
2022-09-05T07:25:08.813Z,100.00
2022-09-05T07:28:26.369Z,100.00
2022-09-05T07:30:32.529Z,100.00
2022-09-05T07:33:04.211Z,100.00
2022-09-05T07:35:41.636Z,100.00
2022-09-05T07:38:17.065Z,100.00
2022-09-05T07:40:54.276Z,100.00
2022-09-05T07:43:28.033Z,100.00
2022-09-05T07:46:11.651Z,100.00
2022-09-05T07:48:49.581Z,100.00
2022-09-05T07:56:46.939Z,100.00
2022-09-05T07:57:02.367Z,100.00
2022-09-05T07:57:31.779Z,100.00
2022-09-05T08:00:08.376Z,100.00
2022-09-05T08:03:01.198Z,100.00
2022-09-05T08:05:40.544Z,100.00
2022-09-05T08:08:17.735Z,100.00
2022-09-05T08:11:25.058Z,100.00
2022-09-05T08:13:57.799Z,100.00
2022-09-05T08:16:43.549Z,100.00
2022-09-05T08:19:43.356Z,100.00
2022-09-05T08:22:21.392Z,100.00
2022-09-05T08:25:00.970Z,100.00
2022-09-05T08:27:37.785Z,100.00
2022-09-05T08:30:27.470Z,100.00
2022-09-05T08:33:10.240Z,100.00
2022-09-05T08:35:45.465Z,100.00
2022-09-05T08:38:17.166Z,100.00
2022-09-05T08:40:59.801Z,100.00
2022-09-05T08:46:38.064Z,100.00
2022-09-05T08:46:43.591Z,100.00
2022-09-05T08:49:52.658Z,100.00
2022-09-05T08:52:31.682Z,100.00
2022-09-05T08:55:12.804Z,100.00
2022-09-05T08:58:12.204Z,100.00
2022-09-05T09:00:55.593Z,100.00
2022-09-05T09:03:33.760Z,100.00
2022-09-05T09:06:21.697Z,100.00
2022-09-05T09:09:18.610Z,100.00
2022-09-05T09:11:55.386Z,100.00
2022-09-05T09:14:59.454Z,100.00
2022-09-05T09:17:43.995Z,100.00
2022-09-05T09:20:37.495Z,100.00
2022-09-05T09:23:32.041Z,100.00
2022-09-05T09:26:13.495Z,100.00
2022-09-05T09:28:51.773Z,100.00
2022-09-05T09:31:44.379Z,100.00
2022-09-05T09:34:36.779Z,100.00
2022-09-05T09:37:51.911Z,96.61
2022-09-05T09:40:52.237Z,84.63
2022-09-05T09:43:39.285Z,67.29
2022-09-05T09:46:18.411Z,68.98
2022-09-05T09:49:23.082Z,65.69
2022-09-05T09:52:22.150Z,62.29
2022-09-05T09:55:41.278Z,58.25
2022-09-05T09:58:36.721Z,61.77
2022-09-05T10:01:21.609Z,57.07
2022-09-05T10:10:36.428Z,52.90
2022-09-05T10:10:45.889Z,58.21
2022-09-05T10:11:51.987Z,75.43
2022-09-05T10:14:56.812Z,100.00
2022-09-05T10:17:55.222Z,100.00
2022-09-05T10:21:15.555Z,100.00
2022-09-05T10:23:58.650Z,100.00
2022-09-05T10:27:20.847Z,100.00
2022-09-05T10:30:12.181Z,100.00
2022-09-05T10:35:04.804Z,96.43
2022-09-05T10:35:50.464Z,100.00
2022-09-05T10:38:26.359Z,100.00
2022-09-05T10:41:03.278Z,100.00
2022-09-05T10:43:54.935Z,82.46
2022-09-05T10:46:50.050Z,47.77
2022-09-05T10:49:27.316Z,40.44
2022-09-05T10:52:18.695Z,46.13
2022-09-05T10:55:13.988Z,38.71
2022-09-05T10:57:57.612Z,36.49
2022-09-05T11:02:23.723Z,36.14
2022-09-05T11:03:46.866Z,42.54
2022-09-05T11:06:20.933Z,34.72
2022-09-05T11:09:06.922Z,35.50
2022-09-05T11:11:46.155Z,35.93
2022-09-05T11:14:35.298Z,42.77
2022-09-05T11:17:16.123Z,38.76
2022-09-05T11:19:49.554Z,43.24
2022-09-05T11:22:23.683Z,37.48
2022-09-05T11:24:59.132Z,32.19
2022-09-05T11:27:34.087Z,29.02
2022-09-05T11:30:07.113Z,30.45
2022-09-05T11:39:42.475Z,28.64
2022-09-05T11:39:58.054Z,27.63
2022-09-05T11:40:07.051Z,28.29
2022-09-05T11:42:48.943Z,29.05
2022-09-05T11:45:39.453Z,36.86
2022-09-05T11:48:47.906Z,40.41
2022-09-05T11:51:59.566Z,31.42
2022-09-05T11:55:08.133Z,30.58
2022-09-05T11:58:44.623Z,29.46
2022-09-05T12:01:43.469Z,29.77
2022-09-05T12:04:29.593Z,28.23
2022-09-05T12:07:32.900Z,28.74
2022-09-05T12:10:46.621Z,25.64
2022-09-05T12:13:32.556Z,24.28
2022-09-05T12:16:10.375Z,25.54
2022-09-05T12:18:48.673Z,32.42
2022-09-05T12:21:29.832Z,36.06
2022-09-05T12:27:41.240Z,26.36
2022-09-05T12:30:00.698Z,25.88
2022-09-05T12:33:47.916Z,24.34
2022-09-05T12:36:10.009Z,24.17
2022-09-05T12:40:04.908Z,31.51
2022-09-05T12:41:41.475Z,27.65
2022-09-05T12:41:44.996Z,25.02
2022-09-05T12:44:41.235Z,24.24
2022-09-05T12:47:18.518Z,24.29
2022-09-05T12:50:03.436Z,25.42
2022-09-05T12:52:46.755Z,23.13
2022-09-05T12:55:27.333Z,23.61
2022-09-05T13:03:09.384Z,27.85
2022-09-05T13:03:09.503Z,22.85
2022-09-05T13:04:15.839Z,24.84
2022-09-05T13:06:45.452Z,31.59
2022-09-05T13:09:22.898Z,33.58
2022-09-05T13:14:54.911Z,29.56
2022-09-05T13:15:21.507Z,23.70
2022-09-05T13:18:00.395Z,32.32
2022-09-05T13:20:36.920Z,34.86
2022-09-05T13:23:20.309Z,35.98
2022-09-05T13:25:58.626Z,36.11
2022-09-05T13:28:35.462Z,36.58
2022-09-05T13:37:58.606Z,39.89
2022-09-05T13:38:10.750Z,38.60
2022-09-05T13:38:17.823Z,39.23
2022-09-05T13:39:50.572Z,30.66
2022-09-05T13:42:23.068Z,29.01
2022-09-05T13:44:56.585Z,31.98
2022-09-05T13:47:56.381Z,33.00
2022-09-05T13:50:28.780Z,33.75
2022-09-05T13:53:04.957Z,32.71
2022-09-05T13:55:42.908Z,33.38
2022-09-05T13:58:17.732Z,32.04
2022-09-05T14:01:19.036Z,30.46
2022-09-05T14:07:46.767Z,30.21
2022-09-05T14:10:55.253Z,28.54
2022-09-05T14:13:28.329Z,29.49
2022-09-05T14:16:00.804Z,28.17
2022-09-05T14:18:55.591Z,29.09
2022-09-05T14:21:27.827Z,33.05
2022-09-05T14:24:03.405Z,35.99
2022-09-05T14:26:42.419Z,36.41
2022-09-05T14:29:18.692Z,37.48
2022-09-05T14:37:34.751Z,37.96
2022-09-05T14:37:44.461Z,37.94
2022-09-05T14:38:09.685Z,32.12
2022-09-05T14:41:29.170Z,31.84
2022-09-05T14:44:37.862Z,37.59
2022-09-05T14:47:42.531Z,40.55
2022-09-05T14:50:27.693Z,40.56
2022-09-05T14:56:23.175Z,43.49
2022-09-05T15:02:56.710Z,44.44
2022-09-05T15:02:57.790Z,44.79
2022-09-05T15:04:45.386Z,45.52
2022-09-05T15:07:21.931Z,46.00
2022-09-05T15:12:15.727Z,47.06
2022-09-05T15:13:03.456Z,48.42
2022-09-05T15:18:03.051Z,43.66
2022-09-05T15:20:37.347Z,44.44
2022-09-05T15:23:11.324Z,43.97
2022-09-05T15:25:49.711Z,46.22
2022-09-05T15:28:31.717Z,50.12
2022-09-05T15:31:05.089Z,50.92
2022-09-05T15:33:34.298Z,49.70
2022-09-05T15:36:06.870Z,47.98
2022-09-05T15:38:54.453Z,50.27
2022-09-05T15:41:26.634Z,51.82
2022-09-05T15:44:00.173Z,50.92
2022-09-05T15:46:49.462Z,48.98
2022-09-05T15:49:33.265Z,50.81
2022-09-05T15:52:07.531Z,52.31
2022-09-05T15:54:40.484Z,53.12
2022-09-05T15:57:17.653Z,52.96
2022-09-05T15:59:53.924Z,55.95
2022-09-05T16:02:26.387Z,56.94
2022-09-05T16:10:35.642Z,56.75
2022-09-05T16:10:42.220Z,66.08
2022-09-05T16:11:37.042Z,70.56
2022-09-05T16:13:51.997Z,64.58
2022-09-05T16:23:14.891Z,63.35
2022-09-05T16:23:16.571Z,64.96
2022-09-05T16:23:24.772Z,63.41
2022-09-05T16:25:17.579Z,60.77
2022-09-05T16:27:53.652Z,60.04
2022-09-05T16:30:25.219Z,60.42
2022-09-05T16:33:01.737Z,60.65
2022-09-05T16:35:35.182Z,60.26
2022-09-05T16:38:09.859Z,59.94
2022-09-05T16:40:43.764Z,60.87
2022-09-05T16:43:19.531Z,61.34
2022-09-05T16:45:56.435Z,60.57
2022-09-05T16:48:40.736Z,62.05
2022-09-05T16:51:35.065Z,62.42
2022-09-05T16:54:12.447Z,64.11
2022-09-05T16:56:46.606Z,63.98
2022-09-05T16:59:19.307Z,64.41
2022-09-05T17:02:06.312Z,68.86
2022-09-05T17:05:03.238Z,68.11
2022-09-05T17:07:53.696Z,67.92
2022-09-05T17:10:27.153Z,75.41
2022-09-05T17:12:57.919Z,72.41
2022-09-05T17:15:30.759Z,74.67
2022-09-05T17:18:22.436Z,75.68
2022-09-05T17:20:58.580Z,72.07
2022-09-05T17:29:21.169Z,70.39
2022-09-05T17:29:30.257Z,69.81
2022-09-05T17:31:20.883Z,69.93
2022-09-05T17:32:54.563Z,76.45
2022-09-05T17:35:43.624Z,74.58
2022-09-05T17:39:00.802Z,77.66
2022-09-05T17:42:02.280Z,81.18
2022-09-05T17:44:42.915Z,80.24
2022-09-05T17:47:35.514Z,81.03
2022-09-05T17:50:16.823Z,80.65
2022-09-05T17:53:26.420Z,82.79
2022-09-05T17:56:14.887Z,84.14
2022-09-05T17:59:03.883Z,84.28
2022-09-05T18:01:35.115Z,85.37
2022-09-05T18:04:17.082Z,83.49
2022-09-05T18:06:59.235Z,86.59
2022-09-05T18:10:14.579Z,84.67
2022-09-05T18:13:31.628Z,86.56
2022-09-05T18:16:11.733Z,87.84
2022-09-05T18:19:32.910Z,92.06
2022-09-05T18:21:50.032Z,83.91
2022-09-05T18:24:32.774Z,83.69
2022-09-05T18:27:35.114Z,84.71
2022-09-05T18:30:01.761Z,85.02
2022-09-05T18:32:45.549Z,84.85
2022-09-05T18:35:36.899Z,86.89
2022-09-05T18:38:50.459Z,91.60
2022-09-05T18:41:19.299Z,87.58
2022-09-05T18:44:13.523Z,85.56
2022-09-05T18:46:52.768Z,94.64
2022-09-05T18:50:25.608Z,87.26
2022-09-05T18:52:23.390Z,85.58
2022-09-05T18:55:46.357Z,83.24
2022-09-05T18:57:52.479Z,86.54
2022-09-05T19:00:44.572Z,87.21
2022-09-05T19:03:19.605Z,91.55
2022-09-05T19:06:34.295Z,92.85
2022-09-05T19:08:56.339Z,91.51
2022-09-05T19:11:31.871Z,95.44
2022-09-05T19:14:26.722Z,100.00
2022-09-05T19:17:09.942Z,91.91
2022-09-05T19:20:31.877Z,90.62
2022-09-05T19:23:10.595Z,95.81
2022-09-05T19:25:45.293Z,92.05
2022-09-05T19:36:46.080Z,90.91
2022-09-05T19:36:46.724Z,91.20
2022-09-05T19:36:59.028Z,90.92
2022-09-05T19:43:28.361Z,89.37
2022-09-05T19:47:39.300Z,85.68
2022-09-05T19:47:51.105Z,89.16
2022-09-05T19:48:27.478Z,90.06
2022-09-05T19:50:58.269Z,87.70
2022-09-05T19:53:27.428Z,88.91
2022-09-05T19:55:56.590Z,92.70
2022-09-05T19:58:25.771Z,92.82
2022-09-05T20:01:05.152Z,89.76
2022-09-05T20:03:39.454Z,95.52
2022-09-05T20:06:30.032Z,96.20
2022-09-05T20:09:14.929Z,90.64
2022-09-05T20:11:49.637Z,92.24
2022-09-05T20:14:22.016Z,93.38
2022-09-05T20:16:55.969Z,94.62
2022-09-05T20:19:28.744Z,95.82
2022-09-05T20:22:46.667Z,94.82
2022-09-05T20:24:55.915Z,97.95
2022-09-05T20:27:28.288Z,95.50
2022-09-05T20:30:00.461Z,96.98
2022-09-05T20:32:39.479Z,100.00
2022-09-05T20:39:01.011Z,100.00
2022-09-05T20:43:11.526Z,97.79
2022-09-05T20:43:21.750Z,98.16
2022-09-05T20:44:19.253Z,100.00
2022-09-05T20:50:45.663Z,100.00
2022-09-05T20:54:19.067Z,100.00
2022-09-05T20:54:27.128Z,100.00
2022-09-05T20:55:41.346Z,100.00
2022-09-05T20:58:14.211Z,100.00
2022-09-05T21:01:19.758Z,100.00
2022-09-05T21:03:40.963Z,100.00
2022-09-05T21:06:23.635Z,100.00
2022-09-05T21:08:56.111Z,100.00
2022-09-05T21:11:33.785Z,100.00
2022-09-05T21:14:05.523Z,100.00
2022-09-05T21:16:38.571Z,100.00
2022-09-05T21:19:07.854Z,100.00
2022-09-05T21:21:38.045Z,100.00
2022-09-05T21:24:17.360Z,100.00
2022-09-05T21:26:49.424Z,100.00
2022-09-05T21:29:32.566Z,100.00
2022-09-05T21:32:05.597Z,100.00
2022-09-05T21:34:45.794Z,100.00
2022-09-05T21:37:17.932Z,100.00
2022-09-05T21:39:59.793Z,100.00
2022-09-05T21:47:17.222Z,100.00
2022-09-05T21:47:49.091Z,100.00
2022-09-05T21:48:13.290Z,100.00
2022-09-05T21:50:46.504Z,100.00
2022-09-05T21:55:59.495Z,100.00
2022-09-05T21:59:19.660Z,100.00
2022-09-05T21:59:29.834Z,100.00
2022-09-05T22:01:58.866Z,100.00
2022-09-05T22:04:28.785Z,100.00
2022-09-05T22:07:02.318Z,100.00
2022-09-05T22:09:32.835Z,100.00
2022-09-05T22:12:06.133Z,100.00
2022-09-05T22:14:47.043Z,100.00
2022-09-05T22:17:17.392Z,100.00
2022-09-05T22:19:46.899Z,100.00
2022-09-05T22:22:17.830Z,100.00
2022-09-05T22:24:53.641Z,100.00
2022-09-05T22:27:24.151Z,100.00
2022-09-05T22:29:53.312Z,100.00
2022-09-05T22:32:34.515Z,100.00
2022-09-05T22:35:27.976Z,100.00
2022-09-05T22:38:01.250Z,100.00
2022-09-05T22:40:32.332Z,100.00
2022-09-05T22:43:02.844Z,100.00
2022-09-05T22:45:35.912Z,100.00
2022-09-05T22:48:08.386Z,100.00
2022-09-05T22:50:38.744Z,100.00
2022-09-05T22:53:09.842Z,100.00
2022-09-05T22:55:42.573Z,100.00
2022-09-05T22:58:13.777Z,100.00
2022-09-05T23:00:44.700Z,100.00
2022-09-05T23:03:13.759Z,100.00
2022-09-05T23:05:42.803Z,100.00
2022-09-05T23:08:11.813Z,100.00
2022-09-05T23:10:42.025Z,100.00
2022-09-05T23:13:12.180Z,100.00
2022-09-05T23:15:41.205Z,100.00
2022-09-05T23:18:10.021Z,100.00
2022-09-05T23:20:38.848Z,100.00
2022-09-05T23:23:08.529Z,100.00
2022-09-05T23:25:37.560Z,100.00
2022-09-05T23:28:09.280Z,100.00
2022-09-05T23:30:38.924Z,100.00
2022-09-05T23:33:09.553Z,100.00
2022-09-05T23:35:38.803Z,100.00
2022-09-05T23:38:10.567Z,100.00
2022-09-05T23:40:39.870Z,100.00
2022-09-05T23:43:10.198Z,100.00
2022-09-05T23:45:39.155Z,100.00
2022-09-05T23:48:08.180Z,100.00
2022-09-05T23:50:37.075Z,100.00
2022-09-05T23:53:05.969Z,100.00
2022-09-05T23:55:34.899Z,100.00
2022-09-05T23:58:03.790Z,100.00
